Strona główna
METAR-TAF:

METAR-TAF

Lotnisko :

Manassas Regional Airport (Harry P. Davis Field)

Manassas, Wirginia, Stany Zjednoczone

Szerokość geograficzna: 38-43N, Długość geograficzna: 077-31W, wysokość: 59 m

Aktualna obserwacja pogody

Raport powstał 1 godzina i 7 minut temu, godzina 08:56 UTC
Wiatr 3 kt od południowo-południowy zachód
Temperatura -3°C
Wilgotność 68%
Ciśnienie 1015 hPa
Widzialność: 16.1 km
Rozproszone chmury na wysokości 7000 ft

METAR: KHEF 280856Z AUTO 21003KT 10SM SCT070 M03/M08 A2996 RMK AO2 SLP152 T10281083 56015 FZRANO

czas: 05:03 (10:03 UTC)


TAF: brakujący

Obserwacja i prognoza pogody dla ponad 4000 lotnisk (raport METAR i TAF).

Dostępne stacje oznaczono żółtymi i czerwonymi punktami na mapie.

Najedź kursorem aby zobaczyć nazwę stacji.

Kliknij aby zobaczyć obserwacje i prognozy pogody.

Aby zmienić mapę: kliknij na zielony przycisk z czarnym krzyżykiem, aby powiększyć; na zielony przycisk z myślnikiem, aby pomniejszyć; na zielone strzałki, aby przejść do map sąsiednich.


METAR-TAF: